Time;durP1;ratioP1;P1;durP2;ratioP2;P2;SDS_P1;SDS_P2;PMS_P1;PMS_P2;Temp;Humidity;BMP_temperature;BMP_pressure;BME280_temperature;BME280_humidity;BME280_pressure;Samples;Min_cycle;Max_cycle;Signal;HPM_P1;HPM_P2
2022/09/07 00:03:05;;;;;;;7.50;6.80;;;;;;;;;;10418150;28;20044;-62
2022/09/07 00:08:05;;;;;;;16.40;6.82;;;;;;;;;;10413075;28;20029;-65
2022/09/07 00:13:07;;;;;;;14.50;6.80;;;;;;;;;;10411723;28;20564;-64
2022/09/07 00:18:07;;;;;;;11.43;6.68;;;;;;;;;;10413084;28;20541;-64
2022/09/07 00:23:07;;;;;;;9.87;6.13;;;;;;;;;;10417365;28;20040;-63
2022/09/07 00:28:08;;;;;;;9.52;5.47;;;;;;;;;;10404206;28;20469;-63
2022/09/07 00:33:09;;;;;;;9.82;6.30;;;;;;;;;;10409292;28;20030;-63
2022/09/07 00:38:09;;;;;;;8.35;5.40;;;;;;;;;;10411795;28;20045;-64
2022/09/07 00:43:15;;;;;;;6.03;5.13;;;;;;;;;;10410696;28;20033;-64
2022/09/07 00:48:17;;;;;;;8.65;4.82;;;;;;;;;;10411270;28;20032;-60
2022/09/07 00:53:22;;;;;;;7.47;4.47;;;;;;;;;;10409488;28;20029;-63
2022/09/07 00:58:23;;;;;;;6.07;4.72;;;;;;;;;;10399725;28;20568;-65
2022/09/07 01:03:27;;;;;;;7.65;4.72;;;;;;;;;;10410807;28;20025;-64
2022/09/07 01:08:29;;;;;;;8.55;5.15;;;;;;;;;;10405696;28;20074;-66
2022/09/07 01:13:29;;;;;;;7.57;4.70;;;;;;;;;;10400174;28;20026;-66
2022/09/07 01:19:07;;;;;;;6.13;5.05;;;;;;;;;;10408313;28;20392;-65
2022/09/07 01:24:29;;;;;;;6.15;4.63;;;;;;;;;;10398437;28;20039;-66
2022/09/07 01:29:32;;;;;;;6.13;4.65;;;;;;;;;;10430303;28;20037;-64
2022/09/07 01:34:32;;;;;;;7.07;4.85;;;;;;;;;;10414116;28;20401;-65
2022/09/07 01:40:08;;;;;;;6.90;4.53;;;;;;;;;;10417416;28;20029;-65
2022/09/07 01:45:12;;;;;;;7.07;5.00;;;;;;;;;;10398932;28;20041;-61
2022/09/07 01:50:34;;;;;;;7.93;4.50;;;;;;;;;;10416086;28;20075;-63
2022/09/07 01:55:41;;;;;;;7.55;5.00;;;;;;;;;;10412062;28;20437;-64
2022/09/07 02:00:47;;;;;;;6.00;4.63;;;;;;;;;;10429650;28;20591;-64
2022/09/07 02:06:00;;;;;;;13.40;5.03;;;;;;;;;;10400774;28;20029;-64
2022/09/07 02:11:06;;;;;;;5.10;4.35;;;;;;;;;;10375053;28;20477;-48
2022/09/07 02:16:15;;;;;;;11.73;5.00;;;;;;;;;;10396150;28;20460;-50
2022/09/07 02:21:20;;;;;;;10.18;4.78;;;;;;;;;;10394982;28;20424;-48
2022/09/07 02:26:24;;;;;;;8.32;4.32;;;;;;;;;;10394275;28;20080;-50
2022/09/07 02:31:25;;;;;;;19.33;4.25;;;;;;;;;;10401856;28;20385;-50
2022/09/07 02:36:31;;;;;;;8.70;4.40;;;;;;;;;;10406343;28;20025;-59
2022/09/07 02:41:45;;;;;;;10.40;4.22;;;;;;;;;;10391669;28;20112;-55
2022/09/07 02:47:00;;;;;;;10.13;3.80;;;;;;;;;;10407374;28;20037;-51
2022/09/07 02:52:08;;;;;;;22.63;3.70;;;;;;;;;;10405786;28;20029;-49
2022/09/07 02:57:29;;;;;;;9.57;3.28;;;;;;;;;;10402143;28;20072;-48
2022/09/07 03:02:59;;;;;;;13.80;3.15;;;;;;;;;;10407549;28;20034;-47
2022/09/07 03:08:05;;;;;;;11.82;3.20;;;;;;;;;;10397507;28;20022;-48
2022/09/07 03:13:06;;;;;;;5.38;3.15;;;;;;;;;;10392287;28;20104;-46
2022/09/07 03:18:06;;;;;;;9.80;2.93;;;;;;;;;;10390021;28;20044;-62
2022/09/07 03:23:07;;;;;;;6.80;2.95;;;;;;;;;;10405823;28;20033;-63
2022/09/07 03:28:07;;;;;;;6.60;2.83;;;;;;;;;;10390145;28;20473;-48
2022/09/07 03:33:09;;;;;;;7.50;2.70;;;;;;;;;;10409136;28;20497;-50
2022/09/07 03:38:09;;;;;;;4.65;2.60;;;;;;;;;;10411793;28;20035;-49
2022/09/07 03:43:10;;;;;;;5.70;2.65;;;;;;;;;;10424014;28;20043;-49
2022/09/07 03:48:10;;;;;;;5.30;2.97;;;;;;;;;;10417341;28;20033;-61
2022/09/07 03:53:10;;;;;;;3.90;2.67;;;;;;;;;;10413271;28;20041;-63
2022/09/07 03:58:11;;;;;;;3.70;2.27;;;;;;;;;;10391606;28;20041;-64
2022/09/07 04:03:11;;;;;;;5.73;2.63;;;;;;;;;;10402735;28;20034;-65
2022/09/07 04:08:12;;;;;;;6.63;2.70;;;;;;;;;;10388960;28;20026;-65
2022/09/07 04:13:12;;;;;;;7.70;2.60;;;;;;;;;;10412320;28;20034;-62
2022/09/07 04:18:12;;;;;;;5.53;2.70;;;;;;;;;;10422386;28;20108;-59
2022/09/07 04:23:13;;;;;;;3.63;2.30;;;;;;;;;;10411680;28;20040;-64
2022/09/07 04:28:18;;;;;;;5.93;2.40;;;;;;;;;;10397946;28;20027;-63
2022/09/07 04:33:18;;;;;;;11.35;2.65;;;;;;;;;;10410213;28;20481;-63
2022/09/07 04:38:19;;;;;;;10.67;2.80;;;;;;;;;;10412378;28;20028;-49
2022/09/07 04:43:19;;;;;;;4.13;2.57;;;;;;;;;;10411596;28;20475;-64
2022/09/07 04:48:19;;;;;;;5.63;2.57;;;;;;;;;;10425289;28;20017;-65
2022/09/07 04:53:20;;;;;;;4.07;2.58;;;;;;;;;;10412480;28;20404;-64
2022/09/07 04:58:20;;;;;;;5.60;2.33;;;;;;;;;;10404420;28;20043;-63
2022/09/07 05:03:21;;;;;;;4.43;2.43;;;;;;;;;;10400572;28;20100;-56
2022/09/07 05:08:21;;;;;;;6.80;2.50;;;;;;;;;;10422866;28;20028;-60
2022/09/07 05:13:22;;;;;;;7.07;2.27;;;;;;;;;;10398173;28;20037;-57
2022/09/07 05:18:23;;;;;;;6.93;2.22;;;;;;;;;;10412796;28;20120;-62
2022/09/07 05:23:23;;;;;;;12.60;2.45;;;;;;;;;;10433433;28;20029;-60
2022/09/07 05:28:23;;;;;;;9.40;2.73;;;;;;;;;;10400167;28;20038;-68
2022/09/07 05:33:24;;;;;;;4.47;2.40;;;;;;;;;;10405433;28;20052;-68
2022/09/07 05:38:24;;;;;;;6.17;2.83;;;;;;;;;;10408276;28;20405;-57
2022/09/07 05:43:25;;;;;;;8.95;3.25;;;;;;;;;;10404357;28;20280;-63
2022/09/07 05:48:26;;;;;;;12.20;3.40;;;;;;;;;;10409882;28;20034;-51
2022/09/07 05:53:26;;;;;;;10.88;2.75;;;;;;;;;;10418802;28;20467;-52
2022/09/07 05:58:27;;;;;;;4.43;2.50;;;;;;;;;;10412473;28;20112;-61
2022/09/07 06:03:28;;;;;;;7.70;2.63;;;;;;;;;;10397297;28;20033;-47
2022/09/07 06:08:30;;;;;;;11.73;3.10;;;;;;;;;;10401315;28;20109;-47
2022/09/07 06:13:30;;;;;;;7.88;2.65;;;;;;;;;;10406590;28;20029;-59
2022/09/07 06:18:33;;;;;;;5.83;2.50;;;;;;;;;;10404895;28;20366;-48
2022/09/07 06:23:35;;;;;;;7.93;2.88;;;;;;;;;;10406912;28;20439;-56
2022/09/07 06:28:38;;;;;;;3.90;2.58;;;;;;;;;;10410461;28;20040;-50
2022/09/07 06:33:43;;;;;;;8.50;3.17;;;;;;;;;;10407793;28;20034;-54
2022/09/07 06:38:45;;;;;;;11.20;2.85;;;;;;;;;;10410517;28;20091;-56
2022/09/07 06:43:46;;;;;;;12.05;3.47;;;;;;;;;;10405196;28;20025;-48
2022/09/07 06:48:46;;;;;;;8.18;2.90;;;;;;;;;;10406480;28;20281;-57
2022/09/07 06:53:47;;;;;;;13.20;3.40;;;;;;;;;;10420564;28;20047;-47
2022/09/07 06:58:53;;;;;;;10.50;3.30;;;;;;;;;;10410705;28;20045;-54
2022/09/07 07:03:54;;;;;;;13.52;2.88;;;;;;;;;;10407428;28;20029;-52
2022/09/07 07:08:54;;;;;;;8.82;3.33;;;;;;;;;;10395781;28;20032;-49
2022/09/07 07:13:54;;;;;;;12.93;3.27;;;;;;;;;;10427775;28;20033;-51
2022/09/07 07:18:55;;;;;;;8.50;2.63;;;;;;;;;;10426179;28;20400;-54
2022/09/07 07:23:56;;;;;;;8.07;2.45;;;;;;;;;;10414185;28;20141;-51
2022/09/07 07:28:56;;;;;;;13.82;2.95;;;;;;;;;;10414011;28;20108;-53
2022/09/07 07:33:57;;;;;;;11.97;3.00;;;;;;;;;;10409339;28;20036;-54
2022/09/07 07:38:57;;;;;;;11.80;2.50;;;;;;;;;;10409818;28;20447;-54
2022/09/07 07:43:59;;;;;;;8.73;3.20;;;;;;;;;;10414087;28;20033;-54
2022/09/07 07:48:59;;;;;;;8.85;2.70;;;;;;;;;;10415677;28;20029;-50
2022/09/07 07:53:59;;;;;;;10.13;2.60;;;;;;;;;;10406569;28;20033;-59
2022/09/07 07:59:00;;;;;;;6.93;2.70;;;;;;;;;;10404552;28;20045;-50
2022/09/07 08:04:01;;;;;;;6.60;2.22;;;;;;;;;;10413526;28;20025;-54
2022/09/07 08:09:01;;;;;;;9.93;2.42;;;;;;;;;;10398785;28;20504;-62
2022/09/07 08:14:04;;;;;;;8.53;3.03;;;;;;;;;;10398560;28;20451;-51
2022/09/07 08:19:05;;;;;;;11.98;2.58;;;;;;;;;;10411080;28;20401;-60
2022/09/07 08:24:05;;;;;;;16.30;3.63;;;;;;;;;;10410830;28;20087;-62
2022/09/07 08:29:06;;;;;;;8.68;2.72;;;;;;;;;;10420408;28;20534;-63
2022/09/07 08:34:06;;;;;;;17.57;2.57;;;;;;;;;;10413725;28;20199;-63
2022/09/07 08:39:06;;;;;;;8.80;2.90;;;;;;;;;;10412176;28;20104;-55
2022/09/07 08:44:19;;;;;;;6.40;2.70;;;;;;;;;;10399787;28;20037;-60
2022/09/07 08:49:30;;;;;;;8.15;2.60;;;;;;;;;;10420031;28;20053;-62
2022/09/07 08:54:31;;;;;;;18.60;3.22;;;;;;;;;;10435716;28;20116;-63
2022/09/07 09:00:06;;;;;;;9.73;2.67;;;;;;;;;;10420677;28;20043;-61
2022/09/07 09:05:44;;;;;;;7.10;2.42;;;;;;;;;;10408078;28;20120;-63
2022/09/07 09:11:15;;;;;;;13.32;2.83;;;;;;;;;;10410242;28;20530;-61
2022/09/07 09:16:22;;;;;;;12.85;3.05;;;;;;;;;;10401002;28;20547;-62
2022/09/07 09:21:22;;;;;;;10.70;2.50;;;;;;;;;;10395895;28;20078;-63
2022/09/07 09:26:25;;;;;;;15.05;2.90;;;;;;;;;;10395514;28;20037;-54
2022/09/07 09:31:34;;;;;;;9.13;2.60;;;;;;;;;;10422730;28;20032;-59
2022/09/07 09:36:42;;;;;;;8.15;2.20;;;;;;;;;;10436074;28;20026;-62
2022/09/07 09:41:43;;;;;;;7.97;2.50;;;;;;;;;;10403174;28;20123;-62
2022/09/07 09:46:51;;;;;;;10.00;2.57;;;;;;;;;;10422149;28;20508;-52
2022/09/07 09:51:55;;;;;;;5.10;2.30;;;;;;;;;;10393720;28;21144;-57
2022/09/07 09:56:55;;;;;;;4.63;2.28;;;;;;;;;;10370057;28;20045;-50
2022/09/07 10:01:57;;;;;;;10.68;2.90;;;;;;;;;;10391269;28;20098;-62
2022/09/07 10:07:25;;;;;;;9.95;2.40;;;;;;;;;;10386717;28;20022;-63
2022/09/07 10:12:31;;;;;;;6.93;2.05;;;;;;;;;;10407896;28;20029;-63
2022/09/07 10:17:46;;;;;;;7.60;2.33;;;;;;;;;;10406644;28;20445;-59
2022/09/07 10:22:52;;;;;;;6.15;2.33;;;;;;;;;;10406098;28;20440;-61
2022/09/07 10:28:13;;;;;;;6.60;2.20;;;;;;;;;;10393076;28;20080;-62
2022/09/07 10:33:26;;;;;;;4.57;2.00;;;;;;;;;;10401017;28;20041;-62
2022/09/07 10:38:33;;;;;;;5.03;2.10;;;;;;;;;;10395519;28;20022;-62
2022/09/07 10:43:49;;;;;;;4.43;1.90;;;;;;;;;;10406475;28;20033;-61
2022/09/07 10:49:07;;;;;;;8.32;2.65;;;;;;;;;;10405372;28;20432;-62
2022/09/07 10:54:13;;;;;;;5.30;2.08;;;;;;;;;;10406460;28;20033;-63
2022/09/07 10:59:45;;;;;;;3.58;2.10;;;;;;;;;;10417881;28;20132;-63
2022/09/07 11:05:09;;;;;;;3.65;1.80;;;;;;;;;;10400634;28;20439;-53
2022/09/07 11:10:39;;;;;;;4.43;2.00;;;;;;;;;;10406358;28;20575;-63
2022/09/07 11:15:53;;;;;;;2.33;2.10;;;;;;;;;;10391873;28;20033;-62
2022/09/07 11:20:57;;;;;;;3.45;1.80;;;;;;;;;;10403254;28;20037;-62
2022/09/07 11:26:10;;;;;;;3.92;1.98;;;;;;;;;;10406487;28;20031;-62
2022/09/07 11:31:18;;;;;;;3.13;1.77;;;;;;;;;;10407052;28;20116;-58
2022/09/07 11:36:20;;;;;;;4.70;2.00;;;;;;;;;;10403053;28;20060;-63
2022/09/07 11:41:40;;;;;;;1.88;1.52;;;;;;;;;;10404755;28;20128;-50
2022/09/07 11:46:46;;;;;;;3.53;1.95;;;;;;;;;;10406567;28;20021;-63
2022/09/07 11:51:57;;;;;;;4.60;2.30;;;;;;;;;;10406496;28;20089;-49
2022/09/07 11:57:07;;;;;;;3.30;2.35;;;;;;;;;;10411716;28;20420;-63
2022/09/07 12:02:19;;;;;;;3.83;2.10;;;;;;;;;;10401036;28;20564;-63
2022/09/07 12:07:42;;;;;;;11.98;2.65;;;;;;;;;;10409707;28;20030;-62
2022/09/07 12:13:03;;;;;;;13.32;2.53;;;;;;;;;;10414062;28;20029;-55
2022/09/07 12:18:24;;;;;;;14.55;2.90;;;;;;;;;;10411274;28;20512;-55
2022/09/07 12:23:28;;;;;;;10.55;2.47;;;;;;;;;;10399462;28;20038;-49
2022/09/07 12:28:29;;;;;;;10.68;2.50;;;;;;;;;;10395034;28;20037;-51
2022/09/07 12:33:37;;;;;;;10.23;2.30;;;;;;;;;;10423906;28;20591;-60
2022/09/07 12:39:00;;;;;;;11.45;2.88;;;;;;;;;;10408355;28;20041;-59
2022/09/07 12:44:06;;;;;;;13.25;2.50;;;;;;;;;;10401592;28;20025;-59
2022/09/07 12:49:22;;;;;;;7.60;2.45;;;;;;;;;;10402170;28;20034;-62
2022/09/07 12:54:32;;;;;;;7.10;2.55;;;;;;;;;;10410247;28;20095;-63
2022/09/07 12:59:54;;;;;;;5.10;2.10;;;;;;;;;;10410597;28;20047;-62
2022/09/07 13:05:00;;;;;;;6.45;2.22;;;;;;;;;;10407946;28;20056;-62
2022/09/07 13:10:05;;;;;;;9.35;2.47;;;;;;;;;;10401836;28;20037;-60
2022/09/07 13:15:06;;;;;;;9.60;2.75;;;;;;;;;;10417736;28;20451;-62
2022/09/07 13:20:09;;;;;;;7.93;2.45;;;;;;;;;;10406834;28;20030;-62
2022/09/07 13:25:19;;;;;;;8.00;2.33;;;;;;;;;;10408939;28;20025;-63
2022/09/07 13:30:32;;;;;;;8.13;2.90;;;;;;;;;;10389729;28;20036;-61
2022/09/07 13:35:33;;;;;;;3.40;2.20;;;;;;;;;;10410808;28;20053;-62
2022/09/07 13:40:38;;;;;;;4.32;2.40;;;;;;;;;;10408017;28;20080;-62
2022/09/07 13:45:53;;;;;;;3.40;2.50;;;;;;;;;;10406251;28;20033;-62
2022/09/07 13:51:12;;;;;;;6.18;2.15;;;;;;;;;;10396440;28;20034;-62
2022/09/07 13:56:50;;;;;;;7.30;2.65;;;;;;;;;;10392053;28;20428;-60
2022/09/07 14:01:51;;;;;;;;;;;;;;;;;;10386679;28;20037;-60
2022/09/07 14:07:02;;;;;;;5.50;2.45;;;;;;;;;;10382465;28;20369;-61
2022/09/07 14:12:13;;;;;;;9.73;2.63;;;;;;;;;;10388233;28;20044;-48
2022/09/07 14:17:17;;;;;;;4.75;2.30;;;;;;;;;;10372511;28;20033;-47
2022/09/07 14:22:20;;;;;;;7.82;2.30;;;;;;;;;;10393785;28;20149;-59
2022/09/07 14:27:33;;;;;;;6.43;2.42;;;;;;;;;;10391753;28;20032;-61
2022/09/07 14:32:34;;;;;;;4.93;2.40;;;;;;;;;;10408208;28;20108;-58
2022/09/07 14:37:35;;;;;;;5.00;2.42;;;;;;;;;;10370055;28;20072;-54
2022/09/07 14:42:41;;;;;;;4.95;2.22;;;;;;;;;;10389972;28;20440;-61
2022/09/07 14:47:42;;;;;;;9.00;2.90;;;;;;;;;;10418583;28;20068;-52
2022/09/07 14:52:48;;;;;;;4.82;2.95;;;;;;;;;;10416245;28;20040;-50
2022/09/07 14:57:48;;;;;;;6.18;2.60;;;;;;;;;;10408280;28;20053;-53
2022/09/07 15:02:49;;;;;;;4.13;2.47;;;;;;;;;;10406674;28;20424;-48
2022/09/07 15:08:00;;;;;;;3.93;3.00;;;;;;;;;;10406359;28;20066;-59
2022/09/07 15:13:02;;;;;;;5.25;2.20;;;;;;;;;;10407253;28;20053;-47
2022/09/07 15:18:54;;;;;;;7.07;2.45;;;;;;;;;;10392921;28;20511;-56
2022/09/07 15:23:57;;;;;;;5.53;2.58;;;;;;;;;;10392402;28;20034;-57
2022/09/07 15:28:57;;;;;;;4.05;2.58;;;;;;;;;;10388108;28;20172;-51
2022/09/07 15:33:58;;;;;;;4.63;2.73;;;;;;;;;;10394309;28;20079;-47
2022/09/07 15:38:59;;;;;;;3.72;2.42;;;;;;;;;;10414559;28;20446;-51
2022/09/07 15:43:59;;;;;;;2.90;2.00;;;;;;;;;;10409622;28;20036;-49
2022/09/07 15:49:01;;;;;;;7.57;2.53;;;;;;;;;;10391340;28;20040;-47
2022/09/07 15:54:02;;;;;;;3.38;2.28;;;;;;;;;;10399349;28;20478;-50
2022/09/07 15:59:02;;;;;;;5.43;2.80;;;;;;;;;;10412035;28;20045;-49
2022/09/07 16:04:02;;;;;;;6.77;2.47;;;;;;;;;;10403988;28;20045;-48
2022/09/07 16:09:03;;;;;;;4.93;2.23;;;;;;;;;;10402053;28;20396;-50
2022/09/07 16:14:03;;;;;;;4.90;2.33;;;;;;;;;;10396939;28;20035;-51
2022/09/07 16:19:04;;;;;;;7.03;2.15;;;;;;;;;;10407180;28;20029;-51
2022/09/07 16:24:05;;;;;;;10.40;2.97;;;;;;;;;;10412093;28;20040;-52
2022/09/07 16:29:05;;;;;;;4.78;2.30;;;;;;;;;;10406191;28;20037;-49
2022/09/07 16:34:06;;;;;;;6.13;2.70;;;;;;;;;;10410351;28;20560;-62
2022/09/07 16:39:06;;;;;;;4.27;2.30;;;;;;;;;;10426160;28;20029;-51
2022/09/07 16:44:07;;;;;;;5.13;2.20;;;;;;;;;;10429231;28;20036;-51
2022/09/07 16:49:09;;;;;;;11.23;2.45;;;;;;;;;;10419773;28;20168;-65
2022/09/07 16:54:12;;;;;;;4.90;2.17;;;;;;;;;;10401783;28;20045;-67
2022/09/07 16:59:18;;;;;;;4.93;2.33;;;;;;;;;;10408898;28;20063;-66
2022/09/07 17:04:19;;;;;;;6.05;2.17;;;;;;;;;;10410086;28;20161;-63
2022/09/07 17:09:24;;;;;;;4.57;2.38;;;;;;;;;;10411573;28;20030;-67
2022/09/07 17:14:27;;;;;;;7.30;2.33;;;;;;;;;;10411515;28;20047;-65
2022/09/07 17:19:27;;;;;;;10.85;2.45;;;;;;;;;;10400296;28;20026;-64
2022/09/07 17:24:29;;;;;;;5.03;2.27;;;;;;;;;;10373464;28;20398;-64
2022/09/07 17:29:33;;;;;;;6.57;2.00;;;;;;;;;;10373494;28;20028;-64
2022/09/07 17:34:33;;;;;;;7.60;2.55;;;;;;;;;;10374150;28;20022;-65
2022/09/07 17:39:34;;;;;;;6.10;2.57;;;;;;;;;;10374789;28;20017;-60
2022/09/07 17:44:34;;;;;;;8.60;2.63;;;;;;;;;;10374276;28;20095;-66
2022/09/07 17:49:35;;;;;;;4.70;2.00;;;;;;;;;;10397450;28;20580;-66
2022/09/07 17:54:35;;;;;;;5.70;2.25;;;;;;;;;;10407142;28;20112;-65
2022/09/07 17:59:36;;;;;;;6.38;2.70;;;;;;;;;;10406755;28;20140;-66
2022/09/07 18:04:36;;;;;;;4.93;2.23;;;;;;;;;;10406784;28;20124;-65
2022/09/07 18:09:37;;;;;;;5.87;2.60;;;;;;;;;;10406435;28;20031;-59
2022/09/07 18:14:37;;;;;;;8.07;2.65;;;;;;;;;;10407480;28;20037;-66
2022/09/07 18:19:37;;;;;;;4.43;2.07;;;;;;;;;;10397638;28;20025;-65
2022/09/07 18:24:38;;;;;;;6.55;2.65;;;;;;;;;;10388205;28;20197;-66
2022/09/07 18:29:38;;;;;;;5.57;2.60;;;;;;;;;;10375391;28;20029;-65
2022/09/07 18:34:39;;;;;;;8.70;3.10;;;;;;;;;;10395556;28;20044;-67
2022/09/07 18:39:40;;;;;;;10.50;2.87;;;;;;;;;;10399821;28;20473;-48
2022/09/07 18:44:40;;;;;;;26.73;3.38;;;;;;;;;;10409534;28;20481;-62
2022/09/07 18:49:41;;;;;;;8.37;2.93;;;;;;;;;;10406655;28;20504;-66
2022/09/07 18:54:41;;;;;;;12.23;3.33;;;;;;;;;;10407266;28;20103;-66
2022/09/07 18:59:41;;;;;;;18.80;3.20;;;;;;;;;;10416137;28;20102;-66
2022/09/07 19:04:43;;;;;;;14.10;2.80;;;;;;;;;;10416205;28;20029;-66
2022/09/07 19:09:43;;;;;;;6.72;2.75;;;;;;;;;;10419949;28;20537;-63
2022/09/07 19:14:43;;;;;;;6.17;2.87;;;;;;;;;;10398881;28;20026;-63
2022/09/07 19:19:44;;;;;;;8.60;2.90;;;;;;;;;;10415648;28;20033;-65
2022/09/07 19:24:44;;;;;;;6.97;2.50;;;;;;;;;;10418139;28;20086;-49
2022/09/07 19:29:45;;;;;;;4.95;2.42;;;;;;;;;;10407689;28;20584;-51
2022/09/07 19:34:46;;;;;;;10.50;2.77;;;;;;;;;;10406702;28;20052;-47
2022/09/07 19:39:48;;;;;;;5.25;2.40;;;;;;;;;;10417493;28;20025;-50
2022/09/07 19:44:48;;;;;;;7.85;2.55;;;;;;;;;;10420393;28;20033;-51
2022/09/07 19:49:51;;;;;;;3.65;2.20;;;;;;;;;;10396358;28;20022;-47
2022/09/07 19:54:51;;;;;;;4.10;2.28;;;;;;;;;;10395551;28;20048;-48
2022/09/07 19:59:52;;;;;;;7.37;2.30;;;;;;;;;;10406236;28;20021;-47
2022/09/07 20:04:53;;;;;;;5.03;2.42;;;;;;;;;;10408428;28;20030;-50
2022/09/07 20:09:53;;;;;;;5.93;2.60;;;;;;;;;;10424850;28;20549;-47
2022/09/07 20:14:53;;;;;;;3.87;2.23;;;;;;;;;;10413001;28;20056;-49
2022/09/07 20:19:54;;;;;;;3.07;2.30;;;;;;;;;;10413006;28;20266;-47
2022/09/07 20:24:54;;;;;;;4.37;2.20;;;;;;;;;;10391766;28;20030;-54
2022/09/07 20:29:54;;;;;;;8.00;4.37;;;;;;;;;;10413960;28;20038;-52
2022/09/07 20:34:55;;;;;;;6.40;3.08;;;;;;;;;;10379317;28;20099;-47
2022/09/07 20:39:56;;;;;;;6.72;4.57;;;;;;;;;;10381916;28;20033;-47
2022/09/07 20:44:56;;;;;;;8.00;5.63;;;;;;;;;;10412325;28;20647;-52
2022/09/07 20:49:56;;;;;;;9.00;5.57;;;;;;;;;;10382953;28;20437;-49
2022/09/07 20:54:57;;;;;;;6.53;5.00;;;;;;;;;;10373906;28;20065;-47
2022/09/07 20:59:57;;;;;;;6.53;5.43;;;;;;;;;;10394940;28;20029;-57
2022/09/07 21:04:58;;;;;;;7.73;5.20;;;;;;;;;;10407452;28;20029;-60
2022/09/07 21:09:58;;;;;;;9.60;5.63;;;;;;;;;;10396530;28;20467;-63
2022/09/07 21:14:58;;;;;;;11.07;6.63;;;;;;;;;;10404367;28;20037;-62
2022/09/07 21:19:59;;;;;;;10.55;6.13;;;;;;;;;;10412718;28;20017;-59
2022/09/07 21:25:01;;;;;;;10.97;5.10;;;;;;;;;;10404289;28;20142;-54
2022/09/07 21:30:01;;;;;;;8.18;5.07;;;;;;;;;;10419307;28;20124;-65
2022/09/07 21:35:01;;;;;;;9.43;4.77;;;;;;;;;;10437383;28;20033;-57
2022/09/07 21:40:04;;;;;;;14.57;4.13;;;;;;;;;;10423710;28;20215;-57
2022/09/07 21:45:06;;;;;;;15.93;3.88;;;;;;;;;;10414338;28;20485;-60
2022/09/07 21:50:06;;;;;;;7.90;3.72;;;;;;;;;;10408254;28;20036;-62
2022/09/07 21:55:07;;;;;;;6.00;3.40;;;;;;;;;;10421312;28;20050;-63
2022/09/07 22:00:10;;;;;;;8.05;3.47;;;;;;;;;;10405948;28;20363;-65
2022/09/07 22:05:10;;;;;;;12.05;3.47;;;;;;;;;;10419483;28;20449;-54
2022/09/07 22:10:11;;;;;;;7.77;3.30;;;;;;;;;;10430708;28;20119;-52
2022/09/07 22:15:11;;;;;;;6.95;3.28;;;;;;;;;;10425634;28;20378;-56
2022/09/07 22:20:11;;;;;;;6.67;3.13;;;;;;;;;;10427631;28;20474;-55
2022/09/07 22:25:12;;;;;;;5.07;3.10;;;;;;;;;;10417834;28;20048;-55
2022/09/07 22:30:13;;;;;;;8.68;3.25;;;;;;;;;;10411907;28;20036;-52
2022/09/07 22:35:14;;;;;;;5.75;3.72;;;;;;;;;;10421566;28;20043;-52
2022/09/07 22:40:15;;;;;;;5.68;2.90;;;;;;;;;;10432350;28;20067;-52
2022/09/07 22:45:15;;;;;;;6.35;3.58;;;;;;;;;;10423280;28;20080;-58
2022/09/07 22:50:16;;;;;;;5.37;3.20;;;;;;;;;;10434840;28;20090;-54
2022/09/07 22:55:16;;;;;;;6.65;3.10;;;;;;;;;;10421292;28;20484;-52
2022/09/07 23:00:17;;;;;;;5.00;3.03;;;;;;;;;;10434508;28;20029;-62
2022/09/07 23:05:17;;;;;;;6.30;3.20;;;;;;;;;;10403285;28;20075;-47
2022/09/07 23:10:17;;;;;;;9.13;3.53;;;;;;;;;;10398245;28;20025;-53
2022/09/07 23:15:18;;;;;;;12.60;3.13;;;;;;;;;;10407359;28;20468;-49
2022/09/07 23:20:18;;;;;;;5.65;2.85;;;;;;;;;;10426562;28;20466;-56
2022/09/07 23:25:20;;;;;;;4.80;2.83;;;;;;;;;;10422130;28;20038;-51
2022/09/07 23:30:20;;;;;;;6.97;3.42;;;;;;;;;;10393663;28;20119;-48
2022/09/07 23:35:20;;;;;;;8.37;3.10;;;;;;;;;;10406441;28;20164;-49
2022/09/07 23:40:21;;;;;;;8.23;2.97;;;;;;;;;;10404161;28;20045;-67
2022/09/07 23:45:21;;;;;;;8.53;3.23;;;;;;;;;;10403564;28;20033;-48
2022/09/07 23:50:23;;;;;;;9.40;3.03;;;;;;;;;;10396146;28;20451;-49
2022/09/07 23:55:23;;;;;;;5.70;2.90;;;;;;;;;;10387075;28;20077;-48
